Private Wetterstation Wechselburg
Wetterdaten: Samstag, 12.12.2020
Datum Zeit Temp. +2m Bodentemp. Temp.+5cm Temp. Wind Windchill X Diff Temp. Feuchte +2m Feuchte +5cm Luftdruck Regen Wind Richtung Richtung Sonnenschein Taupunkt Windchill Windben
12.12.2020 00:00 -1,3 C 5,6 C -1,3 C -1,4 C -1,6 C 0,0 C 88 % 93 % 1000,6 hPa 0,0 l/m 0,0 km/h (0 Bft) N-NO 22 0 min -3,0 C -1,6 C 0,0 km/h (0 Bft)
12.12.2020 00:05 -1,3 C 5,6 C -1,3 C -1,4 C -1,5 C 0,0 C 88 % 93 % 1000,6 hPa 0,0 l/m 0,0 km/h (0 Bft) N-NO 22 0 min -3,0 C -1,5 C 0,0 km/h (0 Bft)
12.12.2020 00:10 -1,3 C 5,6 C -1,2 C -1,3 C -1,3 C 0,0 C 88 % 93 % 1000,9 hPa 0,0 l/m 0,5 km/h (0 Bft) N-NO 22 0 min -3,0 C -1,3 C 1,6 km/h (1 Bft)
12.12.2020 00:15 -1,1 C 5,6 C -1,0 C -1,1 C -1,1 C 0,0 C 88 % 93 % 1000,9 hPa 0,0 l/m 0,5 km/h (0 Bft) N-NO 22 0 min -2,8 C -1,1 C 0,0 km/h (0 Bft)
12.12.2020 00:20 -1,1 C 5,6 C -0,9 C -0,8 C -0,8 C 0,3 C 88 % 93 % 1000,9 hPa 0,0 l/m 0,5 km/h (0 Bft) N-NO 22 0 min -2,8 C -0,8 C 1,8 km/h (1 Bft)
12.12.2020 00:25 -1,1 C 5,6 C -0,8 C -0,6 C -0,6 C 0,5 C 88 % 93 % 1000,9 hPa 0,0 l/m 0,6 km/h (0 Bft) N-NO 22 0 min -2,8 C -0,6 C 0,0 km/h (0 Bft)
12.12.2020 00:30 -1,1 C 5,6 C -0,8 C -0,6 C -0,6 C 0,5 C 88 % 93 % 1000,8 hPa 0,0 l/m 0,3 km/h (0 Bft) N-NO 22 0 min -2,8 C -0,6 C 0,0 km/h (0 Bft)
12.12.2020 00:35 -1,1 C 5,6 C -0,9 C -0,8 C -0,8 C 0,3 C 88 % 93 % 1000,8 hPa 0,0 l/m 0,0 km/h (0 Bft) N-NO 22 0 min -2,8 C -0,8 C 0,0 km/h (0 Bft)
12.12.2020 00:40 -1,2 C 5,6 C -0,9 C -1,0 C -1,0 C 0,2 C 88 % 93 % 1000,8 hPa 0,0 l/m 0,0 km/h (0 Bft) N-NO 22 0 min -2,9 C -1,0 C 0,0 km/h (0 Bft)
12.12.2020 00:45 -1,1 C 5,6 C -1,0 C -1,1 C -1,2 C 0,0 C 88 % 93 % 1000,8 hPa 0,0 l/m 0,0 km/h (0 Bft) N-NO 22 0 min -2,8 C -1,2 C 0,0 km/h (0 Bft)
12.12.2020 00:50 -1,3 C 5,6 C -1,0 C -1,2 C -1,2 C 0,1 C 88 % 93 % 1001,0 hPa 0,0 l/m 0,0 km/h (0 Bft) N-NO 22 0 min -3,0 C -1,2 C 0,0 km/h (0 Bft)
12.12.2020 00:55 -1,3 C 5,6 C -0,9 C -1,3 C -1,3 C 0,0 C 88 % 93 % 1001,0 hPa 0,0 l/m 0,0 km/h (0 Bft) N-NO 22 0 min -3,0 C -1,3 C 0,0 km/h (0 Bft)
12.12.2020 01:00 -1,3 C 5,6 C -0,9 C -1,2 C -1,2 C 0,1 C 88 % 93 % 1001,0 hPa 0,0 l/m 0,0 km/h (0 Bft) N-NO 22 0 min -3,0 C -1,2 C 0,0 km/h (0 Bft)
12.12.2020 01:05 -1,3 C 5,6 C -0,9 C -1,2 C -1,2 C 0,1 C 88 % 93 % 1001,0 hPa 0,0 l/m 0,0 km/h (0 Bft) N-NO 22 0 min -3,0 C -1,2 C 0,0 km/h (0 Bft)
12.12.2020 01:10 -1,3 C 5,6 C -0,9 C -1,2 C -1,2 C 0,1 C 88 % 93 % 1000,9 hPa 0,0 l/m 0,0 km/h (0 Bft) N-NO 22 0 min -3,0 C -1,2 C 0,0 km/h (0 Bft)
12.12.2020 01:15 -1,3 C 5,6 C -1,0 C -1,2 C -1,2 C 0,1 C 88 % 93 % 1000,9 hPa 0,0 l/m 0,0 km/h (0 Bft) N-NO 22 0 min -3,0 C -1,2 C 0,0 km/h (0 Bft)
12.12.2020 01:20 -1,3 C 5,6 C -1,1 C -1,2 C -1,2 C 0,1 C 88 % 93 % 1000,9 hPa 0,0 l/m 0,0 km/h (0 Bft) N-NO 22 0 min -3,0 C -1,2 C 0,0 km/h (0 Bft)
12.12.2020 01:25 -1,3 C 5,6 C -1,0 C -1,2 C -1,2 C 0,1 C 88 % 93 % 1000,9 hPa 0,0 l/m 0,0 km/h (0 Bft) N-NO 22 0 min -3,0 C -1,2 C 0,0 km/h (0 Bft)
12.12.2020 01:30 -1,3 C 5,6 C -0,9 C -1,0 C -1,0 C 0,3 C 88 % 93 % 1000,9 hPa 0,0 l/m 0,0 km/h (0 Bft) N-NO 22 0 min -3,0 C -1,0 C 0,0 km/h (0 Bft)
12.12.2020 01:35 -1,3 C 5,6 C -0,8 C -0,7 C -0,7 C 0,6 C 88 % 93 % 1000,9 hPa 0,0 l/m 0,0 km/h (0 Bft) N-NO 22 0 min -3,0 C -0,7 C 0,0 km/h (0 Bft)
12.12.2020 01:40 -1,3 C 5,6 C -0,8 C -0,5 C -0,5 C 0,8 C 88 % 93 % 1000,9 hPa 0,0 l/m 0,0 km/h (0 Bft) N-NO 22 0 min -3,0 C -0,5 C 0,0 km/h (0 Bft)
12.12.2020 01:45 -1,3 C 5,6 C -0,7 C -0,4 C -0,4 C 0,9 C 88 % 93 % 1000,9 hPa 0,0 l/m 0,0 km/h (0 Bft) N-NO 22 0 min -3,0 C -0,4 C 0,0 km/h (0 Bft)
12.12.2020 01:50 -1,1 C 5,6 C -0,7 C -0,4 C -0,4 C 0,7 C 88 % 93 % 1000,8 hPa 0,0 l/m 0,0 km/h (0 Bft) N-NO 22 0 min -2,8 C -0,4 C 0,0 km/h (0 Bft)
12.12.2020 01:55 -1,3 C 5,6 C -0,7 C -0,5 C -0,5 C 0,8 C 88 % 93 % 1000,8 hPa 0,0 l/m 0,0 km/h (0 Bft) N-NO 22 0 min -3,0 C -0,5 C 0,0 km/h (0 Bft)
12.12.2020 02:00 -1,1 C 5,6 C -0,6 C -0,4 C -0,4 C 0,7 C 88 % 93 % 1000,8 hPa 0,0 l/m 0,0 km/h (0 Bft) N-NO 22 0 min -2,8 C -0,4 C 0,0 km/h (0 Bft)
12.12.2020 02:05 -1,2 C 5,6 C -0,5 C -0,3 C -0,3 C 0,9 C 88 % 93 % 1000,8 hPa 0,0 l/m 0,0 km/h (0 Bft) N-NO 22 0 min -2,9 C -0,3 C 0,0 km/h (0 Bft)
12.12.2020 02:10 -1,1 C 5,6 C -0,5 C 0,0 C 0,0 C 1,1 C 88 % 93 % 1001,1 hPa 0,0 l/m 0,2 km/h (0 Bft) N-NO 22 0 min -2,8 C 0,0 C 0,0 km/h (0 Bft)
12.12.2020 02:15 -0,9 C 5,6 C -0,4 C 0,3 C 0,3 C 1,2 C 88 % 93 % 1001,1 hPa 0,0 l/m 0,2 km/h (0 Bft) N-NO 22 0 min -2,6 C 0,3 C 0,0 km/h (0 Bft)
12.12.2020 02:20 -0,9 C 5,6 C -0,3 C 0,4 C 0,4 C 1,3 C 88 % 93 % 1001,1 hPa 0,0 l/m 0,0 km/h (0 Bft) N-NO 22 0 min -2,6 C 0,4 C 0,0 km/h (0 Bft)
12.12.2020 02:25 -1,0 C 5,6 C -0,3 C 0,5 C 0,5 C 1,5 C 88 % 93 % 1001,1 hPa 0,0 l/m 0,0 km/h (0 Bft) N-NO 22 0 min -2,7 C 0,5 C 0,0 km/h (0 Bft)
12.12.2020 02:30 -0,9 C 5,6 C -0,3 C 0,3 C 0,3 C 1,2 C 88 % 93 % 1001,1 hPa 0,0 l/m 0,0 km/h (0 Bft) N-NO 22 0 min -2,6 C 0,3 C 0,0 km/h (0 Bft)
12.12.2020 02:35 -0,9 C 5,4 C -0,3 C 0,3 C 0,3 C 1,2 C 88 % 93 % 1001,1 hPa 0,0 l/m 0,2 km/h (0 Bft) NO 45 0 min -2,6 C 0,3 C 2,9 km/h (1 Bft)
12.12.2020 02:40 -0,9 C 5,4 C -0,1 C 0,6 C 0,6 C 1,5 C 88 % 93 % 1001,1 hPa 0,0 l/m 1,0 km/h (0 Bft) N-NO 22 0 min -2,6 C 0,6 C 0,0 km/h (0 Bft)
12.12.2020 02:45 -0,9 C 5,6 C -0,1 C 0,7 C 0,7 C 1,6 C 88 % 93 % 1001,1 hPa 0,0 l/m 1,1 km/h (1 Bft) N 360 0 min -2,6 C 0,7 C 3,1 km/h (1 Bft)
12.12.2020 02:50 -0,9 C 5,6 C -0,1 C 0,5 C 0,5 C 1,4 C 88 % 93 % 1000,6 hPa 0,0 l/m 0,3 km/h (0 Bft) N 360 0 min -2,6 C 0,5 C 0,0 km/h (0 Bft)
12.12.2020 02:55 -0,9 C 5,4 C -0,1 C 0,4 C 0,4 C 1,3 C 88 % 93 % 1000,6 hPa 0,0 l/m 0,3 km/h (0 Bft) N 360 0 min -2,6 C 0,4 C 2,1 km/h (1 Bft)
12.12.2020 03:00 -0,7 C 5,4 C -0,1 C 0,6 C 0,6 C 1,3 C 88 % 93 % 1000,6 hPa 0,0 l/m 0,3 km/h (0 Bft) SO 135 0 min -2,4 C 0,6 C 0,0 km/h (0 Bft)
12.12.2020 03:05 -0,7 C 5,4 C 0,1 C 0,8 C 0,8 C 1,5 C 88 % 93 % 1000,6 hPa 0,0 l/m 0,3 km/h (0 Bft) S 180 0 min -2,4 C 0,8 C 1,9 km/h (1 Bft)
12.12.2020 03:10 -0,7 C 5,4 C 0,1 C 0,9 C 0,9 C 1,6 C 88 % 93 % 1000,6 hPa 0,0 l/m 0,2 km/h (0 Bft) S 180 0 min -2,4 C 0,9 C 0,0 km/h (0 Bft)
12.12.2020 03:15 -0,5 C 5,4 C 0,3 C 1,0 C 1,0 C 1,5 C 88 % 93 % 1000,6 hPa 0,0 l/m 0,5 km/h (0 Bft) S 180 0 min -2,2 C 1,0 C 3,4 km/h (1 Bft)
12.12.2020 03:20 -0,5 C 5,4 C 0,4 C 1,1 C 1,1 C 1,6 C 88 % 93 % 1000,6 hPa 0,0 l/m 0,8 km/h (0 Bft) SW 225 0 min -2,2 C 1,1 C 6,8 km/h (2 Bft)
12.12.2020 03:25 -0,3 C 5,4 C 0,5 C 1,3 C 1,3 C 1,6 C 89 % 93 % 1000,6 hPa 0,0 l/m 0,6 km/h (0 Bft) S-SO 157 0 min -1,9 C 1,3 C 0,0 km/h (0 Bft)
12.12.2020 03:30 -0,1 C 5,4 C 0,7 C 1,4 C 1,4 C 1,5 C 89 % 93 % 1000,8 hPa 0,0 l/m 0,6 km/h (0 Bft) S-SW 202 0 min -1,7 C 1,4 C 2,9 km/h (1 Bft)
12.12.2020 03:35 0,0 C 5,4 C 0,9 C 1,6 C 1,6 C 1,6 C 89 % 93 % 1000,8 hPa 0,0 l/m 1,0 km/h (0 Bft) S 180 0 min -1,6 C 1,6 C 1,6 km/h (1 Bft)
12.12.2020 03:40 0,2 C 5,3 C 0,9 C 1,7 C 1,7 C 1,5 C 89 % 93 % 1000,8 hPa 0,0 l/m 1,4 km/h (1 Bft) S-SO 157 0 min -1,4 C 1,7 C 4,7 km/h (1 Bft)
12.12.2020 03:45 0,3 C 5,4 C 0,9 C 1,7 C 1,7 C 1,4 C 89 % 93 % 1000,8 hPa 0,0 l/m 1,8 km/h (1 Bft) W-SW 247 0 min -1,3 C 1,7 C 0,0 km/h (0 Bft)
12.12.2020 03:50 0,4 C 5,4 C 1,0 C 1,8 C 1,8 C 1,4 C 88 % 93 % 1000,6 hPa 0,0 l/m 1,4 km/h (1 Bft) S 180 0 min -1,3 C 1,8 C 1,8 km/h (1 Bft)
12.12.2020 03:55 0,7 C 5,4 C 1,1 C 1,8 C 1,8 C 1,1 C 88 % 93 % 1000,6 hPa 0,0 l/m 0,6 km/h (0 Bft) S 180 0 min -1,1 C 1,8 C 0,0 km/h (0 Bft)
12.12.2020 04:00 0,7 C 5,3 C 1,2 C 1,9 C 1,9 C 1,2 C 88 % 93 % 1000,6 hPa 0,0 l/m 1,4 km/h (1 Bft) S-SO 157 0 min -1,1 C 1,9 C 4,5 km/h (1 Bft)
12.12.2020 04:05 1,0 C 5,3 C 1,3 C 2,1 C 2,1 C 1,1 C 88 % 93 % 1000,6 hPa 0,0 l/m 1,6 km/h (1 Bft) O 90 0 min -0,8 C 2,1 C 0,0 km/h (0 Bft)
12.12.2020 04:10 1,1 C 5,3 C 1,4 C 2,2 C 2,2 C 1,1 C 88 % 93 % 1000,6 hPa 0,0 l/m 0,8 km/h (0 Bft) NO 45 0 min -0,7 C 2,2 C 1,9 km/h (1 Bft)
12.12.2020 04:15 1,3 C 5,3 C 1,5 C 2,4 C 2,4 C 1,1 C 88 % 93 % 1000,6 hPa 0,0 l/m 1,0 km/h (0 Bft) O-SO 112 0 min -0,5 C 2,4 C 1,9 km/h (1 Bft)
12.12.2020 04:20 1,5 C 5,3 C 1,6 C 2,4 C 2,4 C 0,9 C 88 % 93 % 1000,6 hPa 0,0 l/m 1,0 km/h (0 Bft) NW 315 0 min -0,3 C 2,4 C 0,0 km/h (0 Bft)
12.12.2020 04:25 1,6 C 5,3 C 1,6 C 2,5 C 2,5 C 0,9 C 88 % 93 % 1000,6 hPa 0,0 l/m 0,2 km/h (0 Bft) W-SW 247 0 min -0,2 C 2,5 C 2,7 km/h (1 Bft)
12.12.2020 04:30 1,6 C 5,3 C 1,7 C 2,5 C 2,5 C 0,9 C 88 % 93 % 1000,4 hPa 0,0 l/m 0,8 km/h (0 Bft) S-SW 202 0 min -0,2 C 2,5 C 3,1 km/h (1 Bft)
12.12.2020 04:35 1,9 C 5,3 C 1,7 C 2,5 C 2,5 C 0,6 C 88 % 92 % 1000,4 hPa 0,0 l/m 1,3 km/h (1 Bft) NO 45 0 min 0,1 C 2,5 C 1,6 km/h (1 Bft)
12.12.2020 04:40 2,0 C 5,3 C 1,7 C 2,5 C 2,5 C 0,5 C 88 % 92 % 1000,4 hPa 0,0 l/m 1,0 km/h (0 Bft) NO 45 0 min 0,2 C 2,5 C 2,7 km/h (1 Bft)
12.12.2020 04:45 2,3 C 5,3 C 1,9 C 2,6 C 2,6 C 0,3 C 88 % 92 % 1000,4 hPa 0,0 l/m 1,3 km/h (1 Bft) NO 45 0 min 0,5 C 2,6 C 3,1 km/h (1 Bft)
12.12.2020 04:50 2,4 C 5,3 C 1,9 C 2,7 C 2,7 C 0,3 C 88 % 92 % 1000,0 hPa 0,0 l/m 1,4 km/h (1 Bft) S 180 0 min 0,6 C 2,7 C 2,1 km/h (1 Bft)
12.12.2020 04:55 2,4 C 5,3 C 1,9 C 2,6 C 2,6 C 0,2 C 88 % 92 % 1000,0 hPa 0,0 l/m 2,3 km/h (1 Bft) SW 225 0 min 0,6 C 2,6 C 0,0 km/h (0 Bft)
12.12.2020 05:00 2,5 C 5,3 C 1,9 C 2,5 C 2,5 C 0,0 C 88 % 92 % 1000,0 hPa 0,0 l/m 2,1 km/h (1 Bft) O-NO 67 0 min 0,7 C 2,5 C 2,1 km/h (1 Bft)
12.12.2020 05:05 2,5 C 5,3 C 1,9 C 2,5 C 2,5 C 0,0 C 87 % 92 % 1000,0 hPa 0,0 l/m 1,3 km/h (1 Bft) N-NO 22 0 min 0,6 C 2,5 C 1,6 km/h (1 Bft)
12.12.2020 05:10 2,7 C 5,2 C 1,9 C 2,6 C 2,5 C 0,0 C 87 % 92 % 1000,4 hPa 0,0 l/m 0,6 km/h (0 Bft) S 180 0 min 0,8 C 2,5 C 2,7 km/h (1 Bft)
12.12.2020 05:15 2,7 C 5,2 C 2,0 C 2,6 C 2,5 C 0,0 C 87 % 92 % 1000,4 hPa 0,0 l/m 0,6 km/h (0 Bft) SW 225 0 min 0,8 C 2,5 C 1,6 km/h (1 Bft)
12.12.2020 05:20 2,7 C 5,2 C 2,1 C 2,7 C 2,6 C 0,0 C 87 % 92 % 1000,4 hPa 0,0 l/m 0,6 km/h (0 Bft) S 180 0 min 0,8 C 2,6 C 2,4 km/h (1 Bft)
12.12.2020 05:25 2,9 C 5,3 C 2,1 C 2,8 C 2,5 C 0,0 C 87 % 92 % 1000,4 hPa 0,0 l/m 1,3 km/h (1 Bft) SO 135 0 min 1,0 C 2,5 C 7,4 km/h (2 Bft)
12.12.2020 05:30 2,8 C 5,3 C 2,1 C 2,7 C 2,4 C 0,0 C 87 % 92 % 1000,6 hPa 0,0 l/m 1,6 km/h (1 Bft) S 180 0 min 0,9 C 2,4 C 3,2 km/h (1 Bft)
12.12.2020 05:35 2,9 C 5,3 C 2,1 C 2,6 C 2,1 C 0,0 C 86 % 92 % 1000,6 hPa 0,0 l/m 1,4 km/h (1 Bft) SW 225 0 min 0,8 C 2,1 C 1,6 km/h (1 Bft)
12.12.2020 05:40 2,9 C 5,3 C 2,1 C 2,6 C 2,0 C 0,0 C 86 % 92 % 1000,6 hPa 0,0 l/m 1,3 km/h (1 Bft) O-NO 67 0 min 0,8 C 2,0 C 0,0 km/h (0 Bft)
12.12.2020 05:45 2,8 C 5,3 C 2,0 C 2,5 C 1,9 C 0,0 C 86 % 92 % 1000,6 hPa 0,0 l/m 0,8 km/h (0 Bft) S-SO 157 0 min 0,7 C 1,9 C 1,8 km/h (1 Bft)
12.12.2020 05:50 2,8 C 5,3 C 2,0 C 2,5 C 1,9 C 0,0 C 86 % 92 % 1000,4 hPa 0,0 l/m 0,8 km/h (0 Bft) N-NW 337 0 min 0,7 C 1,9 C 2,4 km/h (1 Bft)
12.12.2020 05:55 2,8 C 5,4 C 2,0 C 2,5 C 1,8 C 0,0 C 86 % 92 % 1000,4 hPa 0,0 l/m 0,8 km/h (0 Bft) O-NO 67 0 min 0,7 C 1,8 C 0,0 km/h (0 Bft)
12.12.2020 06:00 2,8 C 5,4 C 2,0 C 2,5 C 1,8 C 0,0 C 86 % 92 % 1000,4 hPa 0,0 l/m 1,0 km/h (0 Bft) S 180 0 min 0,7 C 1,8 C 0,0 km/h (0 Bft)
12.12.2020 06:05 2,8 C 5,4 C 1,9 C 2,5 C 1,8 C 0,0 C 86 % 92 % 1000,4 hPa 0,0 l/m 1,0 km/h (0 Bft) S 180 0 min 0,7 C 1,8 C 4,5 km/h (1 Bft)
12.12.2020 06:10 2,8 C 5,4 C 1,9 C 2,5 C 1,8 C 0,0 C 86 % 92 % 1000,2 hPa 0,0 l/m 1,0 km/h (0 Bft) S-SO 157 0 min 0,7 C 1,8 C 5,1 km/h (1 Bft)
12.12.2020 06:15 2,8 C 5,4 C 1,9 C 2,5 C 1,8 C 0,0 C 86 % 92 % 1000,2 hPa 0,0 l/m 1,3 km/h (1 Bft) S-SO 157 0 min 0,7 C 1,8 C 1,9 km/h (1 Bft)
12.12.2020 06:20 2,8 C 5,4 C 1,9 C 2,5 C 1,8 C 0,0 C 86 % 92 % 1000,2 hPa 0,0 l/m 1,8 km/h (1 Bft) S 180 0 min 0,7 C 1,8 C 0,0 km/h (0 Bft)
12.12.2020 06:25 2,8 C 5,4 C 1,9 C 2,5 C 1,8 C 0,0 C 86 % 92 % 1000,2 hPa 0,0 l/m 1,0 km/h (0 Bft) W-SW 247 0 min 0,7 C 1,8 C 0,0 km/h (0 Bft)
12.12.2020 06:30 2,8 C 5,4 C 1,9 C 2,5 C 1,8 C 0,0 C 86 % 92 % 1000,4 hPa 0,0 l/m 0,3 km/h (0 Bft) N-NO 22 0 min 0,7 C 1,8 C 2,1 km/h (1 Bft)
12.12.2020 06:35 2,7 C 5,4 C 1,9 C 2,4 C 1,8 C 0,0 C 86 % 92 % 1000,4 hPa 0,0 l/m 0,5 km/h (0 Bft) N-NO 22 0 min 0,6 C 1,8 C 0,0 km/h (0 Bft)
12.12.2020 06:40 2,7 C 5,4 C 1,9 C 2,4 C 1,8 C 0,0 C 86 % 92 % 1000,4 hPa 0,0 l/m 0,6 km/h (0 Bft) S-SO 157 0 min 0,6 C 1,8 C 1,6 km/h (1 Bft)
12.12.2020 06:45 2,7 C 5,4 C 1,9 C 2,4 C 1,8 C 0,0 C 86 % 92 % 1000,4 hPa 0,0 l/m 1,0 km/h (0 Bft) S 180 0 min 0,6 C 1,8 C 0,0 km/h (0 Bft)
12.12.2020 06:50 2,7 C 5,4 C 1,9 C 2,4 C 1,8 C 0,0 C 86 % 92 % 1000,7 hPa 0,0 l/m 0,8 km/h (0 Bft) W-NW 292 0 min 0,6 C 1,8 C 0,0 km/h (0 Bft)
12.12.2020 06:55 2,7 C 5,4 C 1,9 C 2,4 C 1,8 C 0,0 C 86 % 92 % 1000,7 hPa 0,0 l/m 0,2 km/h (0 Bft) W 270 0 min 0,6 C 1,8 C 1,9 km/h (1 Bft)
12.12.2020 07:00 2,7 C 5,4 C 1,9 C 2,4 C 1,9 C 0,0 C 87 % 92 % 1000,7 hPa 0,0 l/m 0,5 km/h (0 Bft) NW 315 0 min 0,8 C 1,9 C 0,0 km/h (0 Bft)
12.12.2020 07:05 2,7 C 5,4 C 1,9 C 2,4 C 1,9 C 0,0 C 87 % 92 % 1000,7 hPa 0,0 l/m 0,5 km/h (0 Bft) SW 225 0 min 0,8 C 1,9 C 0,0 km/h (0 Bft)
12.12.2020 07:10 2,6 C 5,4 C 1,9 C 2,4 C 1,9 C 0,0 C 87 % 92 % 1000,5 hPa 0,0 l/m 0,3 km/h (0 Bft) S-SO 157 0 min 0,7 C 1,9 C 0,0 km/h (0 Bft)
12.12.2020 07:15 2,6 C 5,4 C 1,9 C 2,4 C 1,9 C 0,0 C 87 % 92 % 1000,5 hPa 0,0 l/m 0,0 km/h (0 Bft) W-SW 247 0 min 0,7 C 1,9 C 0,0 km/h (0 Bft)
12.12.2020 07:20 2,6 C 5,4 C 1,9 C 2,4 C 1,9 C 0,0 C 87 % 92 % 1000,5 hPa 0,0 l/m 0,0 km/h (0 Bft) SW 225 0 min 0,7 C 1,9 C 0,0 km/h (0 Bft)
12.12.2020 07:25 2,7 C 5,4 C 1,9 C 2,4 C 1,9 C 0,0 C 87 % 93 % 1000,5 hPa 0,0 l/m 0,0 km/h (0 Bft) O-SO 112 0 min 0,8 C 1,9 C 0,0 km/h (0 Bft)
12.12.2020 07:30 2,7 C 5,5 C 1,9 C 2,4 C 1,9 C 0,0 C 87 % 93 % 1000,8 hPa 0,0 l/m 0,5 km/h (0 Bft) O-NO 67 0 min 0,8 C 1,9 C 1,8 km/h (1 Bft)
12.12.2020 07:35 2,7 C 5,5 C 1,9 C 2,4 C 1,9 C 0,0 C 87 % 93 % 1000,8 hPa 0,0 l/m 0,5 km/h (0 Bft) S 180 0 min 0,8 C 1,9 C 0,0 km/h (0 Bft)
12.12.2020 07:40 2,7 C 5,5 C 1,9 C 2,4 C 1,9 C 0,0 C 87 % 93 % 1000,8 hPa 0,0 l/m 0,2 km/h (0 Bft) O-SO 112 0 min 0,8 C 1,9 C 0,0 km/h (0 Bft)
12.12.2020 07:45 2,7 C 5,5 C 1,9 C 2,4 C 1,9 C 0,0 C 87 % 93 % 1000,8 hPa 0,0 l/m 0,0 km/h (0 Bft) O-SO 112 0 min 0,8 C 1,9 C 0,0 km/h (0 Bft)
12.12.2020 07:50 2,7 C 5,5 C 1,9 C 2,4 C 1,9 C 0,0 C 87 % 93 % 1000,4 hPa 0,0 l/m 0,0 km/h (0 Bft) NO 45 0 min 0,8 C 1,9 C 0,0 km/h (0 Bft)
12.12.2020 07:55 2,6 C 5,5 C 1,9 C 2,4 C 1,9 C 0,0 C 87 % 93 % 1000,4 hPa 0,0 l/m 0,0 km/h (0 Bft) NO 45 0 min 0,7 C 1,9 C 0,0 km/h (0 Bft)
12.12.2020 08:00 2,6 C 5,5 C 1,9 C 2,4 C 1,9 C 0,0 C 87 % 93 % 1000,4 hPa 0,0 l/m 0,2 km/h (0 Bft) O-NO 67 0 min 0,7 C 1,9 C 0,0 km/h (0 Bft)
12.12.2020 08:05 2,6 C 5,5 C 2,0 C 2,4 C 1,9 C 0,0 C 87 % 93 % 1000,4 hPa 0,0 l/m 0,2 km/h (0 Bft) O-NO 67 0 min 0,7 C 1,9 C 0,0 km/h (0 Bft)
12.12.2020 08:10 2,6 C 5,5 C 2,0 C 2,4 C 1,9 C 0,0 C 87 % 93 % 1001,1 hPa 0,0 l/m 0,0 km/h (0 Bft) O-NO 67 0 min 0,7 C 1,9 C 0,0 km/h (0 Bft)
12.12.2020 08:15 2,6 C 5,5 C 2,0 C 2,4 C 1,9 C 0,0 C 87 % 93 % 1001,1 hPa 0,0 l/m 0,0 km/h (0 Bft) O-NO 67 0 min 0,7 C 1,9 C 0,0 km/h (0 Bft)
12.12.2020 08:20 2,6 C 5,5 C 2,1 C 2,4 C 1,9 C 0,0 C 87 % 93 % 1001,1 hPa 0,0 l/m 0,3 km/h (0 Bft) O-NO 67 0 min 0,7 C 1,9 C 0,0 km/h (0 Bft)
12.12.2020 08:25 2,7 C 5,5 C 2,1 C 2,5 C 2,0 C 0,0 C 87 % 93 % 1001,1 hPa 0,0 l/m 0,3 km/h (0 Bft) NO 45 0 min 0,8 C 2,0 C 0,0 km/h (0 Bft)
12.12.2020 08:30 2,7 C 5,5 C 2,1 C 2,5 C 2,1 C 0,0 C 87 % 93 % 1000,6 hPa 0,0 l/m 0,0 km/h (0 Bft) W-SW 247 0 min 0,8 C 2,1 C 0,0 km/h (0 Bft)
12.12.2020 08:35 2,7 C 5,5 C 2,2 C 2,5 C 2,1 C 0,0 C 87 % 93 % 1000,6 hPa 0,0 l/m 0,0 km/h (0 Bft) NO 45 0 min 0,8 C 2,1 C 0,0 km/h (0 Bft)
12.12.2020 08:40 2,7 C 5,5 C 2,3 C 2,5 C 2,2 C 0,0 C 87 % 93 % 1000,6 hPa 0,0 l/m 0,0 km/h (0 Bft) NO 45 0 min 0,8 C 2,2 C 0,0 km/h (0 Bft)
12.12.2020 08:45 2,6 C 5,5 C 2,3 C 2,5 C 2,3 C 0,0 C 87 % 93 % 1000,6 hPa 0,0 l/m 0,0 km/h (0 Bft) NO 45 0 min 0,7 C 2,3 C 0,0 km/h (0 Bft)
12.12.2020 08:50 2,7 C 5,5 C 2,3 C 2,6 C 2,4 C 0,0 C 87 % 93 % 1000,8 hPa 0,0 l/m 0,0 km/h (0 Bft) NO 45 0 min 0,8 C 2,4 C 0,0 km/h (0 Bft)
12.12.2020 08:55 2,7 C 5,5 C 2,4 C 2,6 C 2,5 C 0,0 C 87 % 93 % 1000,8 hPa 0,0 l/m 0,0 km/h (0 Bft) N-NO 22 0 min 0,8 C 2,5 C 0,0 km/h (0 Bft)
12.12.2020 09:00 2,7 C 5,5 C 2,4 C 2,6 C 2,5 C 0,0 C 87 % 93 % 1000,8 hPa 0,0 l/m 0,0 km/h (0 Bft) N-NO 22 0 min 0,8 C 2,5 C 0,0 km/h (0 Bft)
12.12.2020 09:05 2,8 C 5,5 C 2,5 C 2,7 C 2,5 C 0,0 C 87 % 93 % 1000,8 hPa 0,0 l/m 0,2 km/h (0 Bft) NO 45 0 min 0,9 C 2,5 C 0,0 km/h (0 Bft)
12.12.2020 09:10 2,8 C 5,5 C 2,5 C 2,7 C 2,5 C 0,0 C 87 % 93 % 1001,1 hPa 0,0 l/m 0,2 km/h (0 Bft) NO 45 0 min 0,9 C 2,5 C 0,0 km/h (0 Bft)
12.12.2020 09:15 2,9 C 5,5 C 2,7 C 2,8 C 2,6 C 0,0 C 87 % 93 % 1001,1 hPa 0,0 l/m 0,0 km/h (0 Bft) O 90 0 min 1,0 C 2,6 C 0,0 km/h (0 Bft)
12.12.2020 09:20 2,8 C 5,5 C 2,7 C 2,8 C 2,7 C 0,0 C 87 % 93 % 1001,1 hPa 0,0 l/m 0,0 km/h (0 Bft) O 90 0 min 0,9 C 2,7 C 0,0 km/h (0 Bft)
12.12.2020 09:25 2,8 C 5,5 C 2,7 C 2,8 C 2,8 C 0,0 C 87 % 93 % 1001,1 hPa 0,0 l/m 0,0 km/h (0 Bft) NO 45 0 min 0,9 C 2,8 C 0,0 km/h (0 Bft)
12.12.2020 09:30 2,9 C 5,5 C 2,8 C 2,9 C 2,8 C 0,0 C 87 % 93 % 1001,5 hPa 0,0 l/m 0,0 km/h (0 Bft) O-NO 67 0 min 1,0 C 2,8 C 0,0 km/h (0 Bft)
12.12.2020 09:35 3,0 C 5,5 C 2,9 C 2,9 C 2,8 C 0,0 C 87 % 93 % 1001,5 hPa 0,0 l/m 0,0 km/h (0 Bft) O-NO 67 0 min 1,1 C 2,8 C 0,0 km/h (0 Bft)
12.12.2020 09:40 3,1 C 5,5 C 2,9 C 3,0 C 2,9 C 0,0 C 87 % 93 % 1001,5 hPa 0,0 l/m 0,0 km/h (0 Bft) O-NO 67 0 min 1,2 C 2,9 C 0,0 km/h (0 Bft)
12.12.2020 09:45 3,0 C 5,5 C 2,9 C 3,0 C 3,0 C 0,0 C 87 % 93 % 1001,5 hPa 0,0 l/m 0,2 km/h (0 Bft) O-SO 112 0 min 1,1 C 3,0 C 0,0 km/h (0 Bft)
12.12.2020 09:50 3,1 C 5,5 C 3,0 C 3,1 C 3,0 C 0,0 C 87 % 93 % 1001,4 hPa 0,0 l/m 0,2 km/h (0 Bft) SO 135 0 min 1,2 C 3,0 C 0,0 km/h (0 Bft)
12.12.2020 09:55 3,2 C 5,5 C 3,0 C 3,1 C 3,0 C 0,0 C 87 % 93 % 1001,4 hPa 0,0 l/m 0,0 km/h (0 Bft) O-NO 67 0 min 1,2 C 3,0 C 0,0 km/h (0 Bft)
12.12.2020 10:00 3,3 C 5,5 C 3,1 C 3,2 C 3,0 C 0,0 C 87 % 93 % 1001,4 hPa 0,0 l/m 0,2 km/h (0 Bft) S-SO 157 0 min 1,3 C 3,0 C 0,0 km/h (0 Bft)
12.12.2020 10:05 3,2 C 5,5 C 3,1 C 3,1 C 3,0 C 0,0 C 87 % 93 % 1001,4 hPa 0,0 l/m 0,2 km/h (0 Bft) NO 45 0 min 1,2 C 3,0 C 1,6 km/h (1 Bft)
12.12.2020 10:10 3,3 C 5,4 C 3,2 C 3,2 C 3,1 C 0,0 C 87 % 93 % 1002,2 hPa 0,0 l/m 0,0 km/h (0 Bft) O-SO 112 0 min 1,3 C 3,1 C 0,0 km/h (0 Bft)
12.12.2020 10:15 3,4 C 5,4 C 3,2 C 3,3 C 3,1 C 0,0 C 87 % 93 % 1002,2 hPa 0,0 l/m 0,2 km/h (0 Bft) W 270 0 min 1,4 C 3,1 C 0,0 km/h (0 Bft)
12.12.2020 10:20 3,5 C 5,5 C 3,2 C 3,4 C 3,2 C 0,0 C 87 % 93 % 1002,2 hPa 0,0 l/m 0,0 km/h (0 Bft) W 270 0 min 1,5 C 3,2 C 0,0 km/h (0 Bft)
12.12.2020 10:25 3,5 C 5,5 C 3,3 C 3,4 C 3,3 C 0,0 C 87 % 93 % 1002,2 hPa 0,0 l/m 0,0 km/h (0 Bft) N-NO 22 0 min 1,5 C 3,3 C 0,0 km/h (0 Bft)
12.12.2020 10:30 3,5 C 5,5 C 3,4 C 3,5 C 3,4 C 0,0 C 87 % 93 % 1001,8 hPa 0,0 l/m 0,0 km/h (0 Bft) N-NO 22 0 min 1,5 C 3,4 C 0,0 km/h (0 Bft)
12.12.2020 10:35 3,7 C 5,5 C 3,5 C 3,6 C 3,5 C 0,0 C 87 % 93 % 1001,8 hPa 0,0 l/m 0,0 km/h (0 Bft) O-SO 112 0 min 1,7 C 3,5 C 0,0 km/h (0 Bft)
12.12.2020 10:40 3,6 C 5,5 C 3,5 C 3,6 C 3,6 C 0,0 C 87 % 93 % 1001,8 hPa 0,0 l/m 0,0 km/h (0 Bft) S 180 0 min 1,6 C 3,6 C 0,0 km/h (0 Bft)
12.12.2020 10:45 3,7 C 5,5 C 3,7 C 3,8 C 3,8 C 0,1 C 87 % 93 % 1001,8 hPa 0,0 l/m 0,0 km/h (0 Bft) S 180 0 min 1,7 C 3,8 C 0,0 km/h (0 Bft)
12.12.2020 10:50 3,9 C 5,4 C 3,7 C 3,9 C 3,9 C 0,0 C 87 % 93 % 1001,6 hPa 0,0 l/m 0,2 km/h (0 Bft) SO 135 0 min 1,9 C 3,9 C 2,1 km/h (1 Bft)
12.12.2020 10:55 3,9 C 5,4 C 3,9 C 4,1 C 4,1 C 0,2 C 87 % 93 % 1001,6 hPa 0,0 l/m 0,5 km/h (0 Bft) S 180 0 min 1,9 C 4,1 C 4,3 km/h (1 Bft)
12.12.2020 11:00 4,0 C 5,4 C 3,9 C 4,4 C 4,4 C 0,4 C 87 % 93 % 1001,6 hPa 0,0 l/m 0,6 km/h (0 Bft) O-NO 67 0 min 2,0 C 4,4 C 0,0 km/h (0 Bft)
12.12.2020 11:05 4,0 C 5,4 C 4,0 C 4,7 C 4,7 C 0,7 C 87 % 93 % 1001,6 hPa 0,0 l/m 0,5 km/h (0 Bft) W-NW 292 0 min 2,0 C 4,7 C 0,0 km/h (0 Bft)
12.12.2020 11:10 4,0 C 5,4 C 4,0 C 4,7 C 4,7 C 0,7 C 87 % 93 % 1001,9 hPa 0,0 l/m 0,5 km/h (0 Bft) W-NW 292 0 min 2,0 C 4,7 C 0,0 km/h (0 Bft)
12.12.2020 11:15 4,3 C 5,4 C 4,3 C 5,4 C 5,4 C 1,1 C 87 % 93 % 1001,9 hPa 0,0 l/m 0,8 km/h (0 Bft) O-NO 67 0 min 2,3 C 5,4 C 0,0 km/h (0 Bft)
12.12.2020 11:20 4,4 C 5,4 C 4,3 C 5,6 C 5,6 C 1,2 C 86 % 93 % 1001,9 hPa 0,0 l/m 0,6 km/h (0 Bft) O-NO 67 0 min 2,3 C 5,6 C 0,0 km/h (0 Bft)
12.12.2020 11:25 4,4 C 5,4 C 4,4 C 5,8 C 5,8 C 1,4 C 86 % 93 % 1001,9 hPa 0,0 l/m 0,3 km/h (0 Bft) W 270 0 min 2,3 C 5,8 C 0,0 km/h (0 Bft)
12.12.2020 11:30 4,5 C 5,4 C 4,5 C 6,0 C 6,0 C 1,5 C 86 % 93 % 1002,2 hPa 0,0 l/m 0,5 km/h (0 Bft) O-NO 67 0 min 2,4 C 6,0 C 0,0 km/h (0 Bft)
12.12.2020 11:35 4,7 C 5,4 C 4,7 C 6,2 C 6,2 C 1,5 C 86 % 93 % 1002,2 hPa 0,0 l/m 0,6 km/h (0 Bft) NO 45 0 min 2,6 C 6,2 C 0,0 km/h (0 Bft)
12.12.2020 11:40 4,8 C 5,5 C 4,7 C 6,4 C 6,4 C 1,6 C 86 % 93 % 1002,2 hPa 0,0 l/m 0,6 km/h (0 Bft) SO 135 0 min 2,7 C 6,4 C 0,0 km/h (0 Bft)
12.12.2020 11:45 4,9 C 5,4 C 4,9 C 6,6 C 6,6 C 1,7 C 86 % 93 % 1002,2 hPa 0,0 l/m 0,5 km/h (0 Bft) O-NO 67 0 min 2,8 C 6,6 C 1,8 km/h (1 Bft)
12.12.2020 11:50 4,9 C 5,5 C 4,9 C 6,7 C 6,7 C 1,8 C 86 % 93 % 1002,2 hPa 0,0 l/m 0,6 km/h (0 Bft) NO 45 0 min 2,8 C 6,7 C 3,7 km/h (1 Bft)
12.12.2020 11:55 5,0 C 5,4 C 5,1 C 6,8 C 6,8 C 1,8 C 85 % 93 % 1002,2 hPa 0,0 l/m 0,6 km/h (0 Bft) NO 45 0 min 2,7 C 6,8 C 0,0 km/h (0 Bft)
12.12.2020 12:00 5,1 C 5,5 C 5,2 C 6,8 C 6,8 C 1,7 C 85 % 93 % 1002,2 hPa 0,0 l/m 0,8 km/h (0 Bft) O-SO 112 0 min 2,8 C 6,8 C 1,8 km/h (1 Bft)
12.12.2020 12:05 5,2 C 5,4 C 5,2 C 6,9 C 6,9 C 1,7 C 85 % 93 % 1002,2 hPa 0,0 l/m 0,8 km/h (0 Bft) S-SO 157 0 min 2,9 C 6,9 C 1,9 km/h (1 Bft)
12.12.2020 12:10 5,2 C 5,4 C 5,3 C 6,9 C 6,9 C 1,7 C 84 % 92 % 1002,3 hPa 0,0 l/m 1,3 km/h (1 Bft) O-SO 112 0 min 2,7 C 6,9 C 0,0 km/h (0 Bft)
12.12.2020 12:15 5,2 C 5,4 C 5,3 C 7,2 C 7,2 C 2,0 C 84 % 92 % 1002,3 hPa 0,0 l/m 0,8 km/h (0 Bft) O 90 0 min 2,7 C 7,2 C 2,1 km/h (1 Bft)
12.12.2020 12:20 5,3 C 5,4 C 5,4 C 7,3 C 7,3 C 2,0 C 84 % 92 % 1002,3 hPa 0,0 l/m 0,8 km/h (0 Bft) O-NO 67 0 min 2,8 C 7,3 C 2,7 km/h (1 Bft)
12.12.2020 12:25 5,5 C 5,3 C 5,4 C 7,5 C 7,5 C 2,0 C 84 % 91 % 1002,3 hPa 0,0 l/m 1,4 km/h (1 Bft) O-SO 112 0 min 3,0 C 7,5 C 0,0 km/h (0 Bft)
12.12.2020 12:30 5,5 C 5,3 C 5,4 C 7,5 C 7,5 C 2,0 C 84 % 91 % 1002,1 hPa 0,0 l/m 1,6 km/h (1 Bft) O-SO 112 0 min 3,0 C 7,5 C 0,0 km/h (0 Bft)
12.12.2020 12:35 5,5 C 5,4 C 5,5 C 7,4 C 7,4 C 1,9 C 83 % 91 % 1002,1 hPa 0,0 l/m 2,1 km/h (1 Bft) O-NO 67 0 min 2,8 C 7,4 C 9,2 km/h (2 Bft)
12.12.2020 12:40 5,4 C 5,4 C 5,5 C 7,2 C 7,2 C 1,8 C 83 % 91 % 1002,1 hPa 0,0 l/m 1,8 km/h (1 Bft) O-NO 67 0 min 2,7 C 7,2 C 0,0 km/h (0 Bft)
12.12.2020 12:45 5,5 C 5,4 C 5,6 C 7,2 C 7,2 C 1,7 C 83 % 91 % 1002,1 hPa 0,0 l/m 1,8 km/h (1 Bft) O-NO 67 0 min 2,8 C 7,2 C 1,6 km/h (1 Bft)
12.12.2020 12:50 5,4 C 5,3 C 5,6 C 7,2 C 7,2 C 1,8 C 82 % 91 % 1002,3 hPa 0,0 l/m 1,3 km/h (1 Bft) O 90 0 min 2,6 C 7,2 C 0,0 km/h (0 Bft)
12.12.2020 12:55 5,6 C 5,4 C 5,6 C 7,4 C 7,4 C 1,8 C 83 % 91 % 1002,3 hPa 0,0 l/m 0,3 km/h (0 Bft) SO 135 0 min 2,9 C 7,4 C 0,0 km/h (0 Bft)
12.12.2020 13:00 5,6 C 5,3 C 5,7 C 7,5 C 7,5 C 1,9 C 83 % 91 % 1002,3 hPa 0,0 l/m 0,2 km/h (0 Bft) S-SW 202 0 min 2,9 C 7,5 C 0,0 km/h (0 Bft)
12.12.2020 13:05 5,7 C 5,4 C 5,8 C 7,6 C 7,6 C 1,9 C 82 % 90 % 1002,3 hPa 0,0 l/m 0,3 km/h (0 Bft) O-SO 112 0 min 2,9 C 7,6 C 1,6 km/h (1 Bft)
12.12.2020 13:10 5,7 C 5,4 C 5,8 C 7,5 C 7,5 C 1,8 C 82 % 91 % 1002,4 hPa 0,0 l/m 1,1 km/h (1 Bft) NO 45 0 min 2,9 C 7,5 C 2,6 km/h (1 Bft)
12.12.2020 13:15 5,7 C 5,4 C 5,9 C 7,4 C 7,4 C 1,7 C 82 % 91 % 1002,4 hPa 0,0 l/m 1,3 km/h (1 Bft) SO 135 0 min 2,9 C 7,4 C 1,9 km/h (1 Bft)
12.12.2020 13:20 5,7 C 5,4 C 5,9 C 7,4 C 7,4 C 1,7 C 82 % 91 % 1002,4 hPa 0,0 l/m 0,8 km/h (0 Bft) O-NO 67 0 min 2,9 C 7,4 C 0,0 km/h (0 Bft)
12.12.2020 13:25 5,9 C 5,4 C 5,9 C 7,5 C 7,5 C 1,6 C 81 % 90 % 1002,4 hPa 0,0 l/m 0,3 km/h (0 Bft) SO 135 0 min 2,9 C 7,5 C 0,0 km/h (0 Bft)
12.12.2020 13:30 5,8 C 5,4 C 5,9 C 7,6 C 7,6 C 1,8 C 81 % 90 % 1002,6 hPa 0,0 l/m 0,3 km/h (0 Bft) N-NW 337 0 min 2,8 C 7,6 C 0,0 km/h (0 Bft)
12.12.2020 13:35 5,9 C 5,4 C 5,9 C 7,6 C 7,6 C 1,7 C 81 % 89 % 1002,6 hPa 0,0 l/m 0,3 km/h (0 Bft) O-NO 67 0 min 2,9 C 7,6 C 1,6 km/h (1 Bft)
12.12.2020 13:40 5,8 C 5,4 C 5,7 C 7,5 C 7,5 C 1,7 C 81 % 89 % 1002,6 hPa 0,0 l/m 0,8 km/h (0 Bft) O-SO 112 0 min 2,8 C 7,5 C 0,0 km/h (0 Bft)
12.12.2020 13:45 5,9 C 5,4 C 5,7 C 7,3 C 7,3 C 1,4 C 81 % 89 % 1002,6 hPa 0,0 l/m 0,8 km/h (0 Bft) O-NO 67 0 min 2,9 C 7,3 C 0,0 km/h (0 Bft)
12.12.2020 13:50 5,8 C 5,4 C 5,6 C 7,2 C 7,2 C 1,4 C 81 % 89 % 1002,4 hPa 0,0 l/m 0,5 km/h (0 Bft) NO 45 0 min 2,8 C 7,2 C 1,8 km/h (1 Bft)
12.12.2020 13:55 5,7 C 5,4 C 5,5 C 6,9 C 6,9 C 1,2 C 80 % 89 % 1002,4 hPa 0,0 l/m 0,0 km/h (0 Bft) N-NO 22 0 min 2,5 C 6,9 C 0,0 km/h (0 Bft)
12.12.2020 14:00 5,7 C 5,4 C 5,5 C 6,8 C 6,8 C 1,1 C 80 % 89 % 1002,4 hPa 0,0 l/m 0,2 km/h (0 Bft) N-NO 22 0 min 2,5 C 6,8 C 0,0 km/h (0 Bft)
12.12.2020 14:05 5,7 C 5,4 C 5,5 C 6,7 C 6,7 C 1,0 C 80 % 89 % 1002,4 hPa 0,0 l/m 0,2 km/h (0 Bft) O-NO 67 0 min 2,5 C 6,7 C 0,0 km/h (0 Bft)
12.12.2020 14:10 5,7 C 5,4 C 5,4 C 6,7 C 6,7 C 1,0 C 80 % 89 % 1002,6 hPa 0,0 l/m 0,2 km/h (0 Bft) O-NO 67 0 min 2,5 C 6,7 C 0,0 km/h (0 Bft)
12.12.2020 14:15 5,7 C 5,4 C 5,3 C 6,6 C 6,6 C 0,9 C 81 % 89 % 1002,6 hPa 0,0 l/m 0,2 km/h (0 Bft) O 90 0 min 2,7 C 6,6 C 0,0 km/h (0 Bft)
12.12.2020 14:20 5,6 C 5,4 C 5,3 C 6,5 C 6,5 C 0,9 C 81 % 89 % 1002,6 hPa 0,0 l/m 0,2 km/h (0 Bft) O-NO 67 0 min 2,6 C 6,5 C 0,0 km/h (0 Bft)
12.12.2020 14:25 5,6 C 5,4 C 5,3 C 6,4 C 6,4 C 0,8 C 81 % 90 % 1002,6 hPa 0,0 l/m 0,2 km/h (0 Bft) N-NO 22 0 min 2,6 C 6,4 C 0,0 km/h (0 Bft)
12.12.2020 14:30 5,7 C 5,4 C 5,3 C 6,4 C 6,4 C 0,7 C 81 % 90 % 1002,8 hPa 0,0 l/m 0,0 km/h (0 Bft) W 270 0 min 2,7 C 6,4 C 0,0 km/h (0 Bft)
12.12.2020 14:35 5,7 C 5,4 C 5,3 C 6,4 C 6,4 C 0,7 C 81 % 90 % 1002,8 hPa 0,0 l/m 0,0 km/h (0 Bft) W 270 0 min 2,7 C 6,4 C 0,0 km/h (0 Bft)
12.12.2020 14:40 5,7 C 5,4 C 5,3 C 6,4 C 6,4 C 0,7 C 81 % 90 % 1002,8 hPa 0,0 l/m 0,0 km/h (0 Bft) O-NO 67 0 min 2,7 C 6,4 C 0,0 km/h (0 Bft)
12.12.2020 14:45 5,6 C 5,4 C 5,3 C 6,3 C 6,3 C 0,7 C 81 % 90 % 1002,8 hPa 0,0 l/m 0,2 km/h (0 Bft) O-NO 67 0 min 2,6 C 6,3 C 0,0 km/h (0 Bft)
12.12.2020 14:50 5,6 C 5,4 C 5,2 C 6,2 C 6,2 C 0,6 C 81 % 90 % 1003,2 hPa 0,0 l/m 0,2 km/h (0 Bft) O-NO 67 0 min 2,6 C 6,2 C 0,0 km/h (0 Bft)
12.12.2020 14:55 5,7 C 5,5 C 5,1 C 6,2 C 6,2 C 0,5 C 81 % 90 % 1003,2 hPa 0,0 l/m 0,2 km/h (0 Bft) NO 45 0 min 2,7 C 6,2 C 2,3 km/h (1 Bft)
12.12.2020 15:00 5,6 C 5,5 C 5,1 C 6,1 C 6,1 C 0,5 C 81 % 90 % 1003,2 hPa 0,0 l/m 0,2 km/h (0 Bft) O-NO 67 0 min 2,6 C 6,1 C 0,0 km/h (0 Bft)
12.12.2020 15:05 5,6 C 5,5 C 5,0 C 6,0 C 6,0 C 0,4 C 81 % 90 % 1003,2 hPa 0,0 l/m 0,2 km/h (0 Bft) N-NO 22 0 min 2,6 C 6,0 C 0,0 km/h (0 Bft)
12.12.2020 15:10 5,5 C 5,5 C 5,0 C 5,9 C 5,9 C 0,4 C 81 % 90 % 1003,2 hPa 0,0 l/m 0,0 km/h (0 Bft) N-NO 22 0 min 2,5 C 5,9 C 0,0 km/h (0 Bft)
12.12.2020 15:15 5,5 C 5,5 C 5,0 C 5,9 C 5,9 C 0,4 C 81 % 90 % 1003,2 hPa 0,0 l/m 0,0 km/h (0 Bft) N-NO 22 0 min 2,5 C 5,9 C 0,0 km/h (0 Bft)
12.12.2020 15:20 5,4 C 5,5 C 4,9 C 5,8 C 5,8 C 0,4 C 81 % 90 % 1003,2 hPa 0,0 l/m 0,0 km/h (0 Bft) N-NO 22 0 min 2,4 C 5,8 C 0,0 km/h (0 Bft)
12.12.2020 15:25 5,5 C 5,6 C 4,9 C 5,7 C 5,7 C 0,2 C 81 % 90 % 1003,2 hPa 0,0 l/m 0,0 km/h (0 Bft) N-NO 22 0 min 2,5 C 5,7 C 0,0 km/h (0 Bft)
12.12.2020 15:30 5,5 C 5,6 C 4,8 C 5,7 C 5,7 C 0,2 C 81 % 90 % 1003,4 hPa 0,0 l/m 0,0 km/h (0 Bft) N-NO 22 0 min 2,5 C 5,7 C 0,0 km/h (0 Bft)
12.12.2020 15:35 5,3 C 5,7 C 4,7 C 5,6 C 5,6 C 0,3 C 81 % 90 % 1003,4 hPa 0,0 l/m 0,0 km/h (0 Bft) N-NO 22 0 min 2,3 C 5,6 C 0,0 km/h (0 Bft)
12.12.2020 15:40 5,3 C 5,7 C 4,7 C 5,5 C 5,5 C 0,2 C 81 % 90 % 1003,4 hPa 0,0 l/m 0,0 km/h (0 Bft) N-NO 22 0 min 2,3 C 5,5 C 0,0 km/h (0 Bft)
12.12.2020 15:45 5,3 C 5,7 C 4,6 C 5,4 C 5,4 C 0,1 C 81 % 90 % 1003,4 hPa 0,0 l/m 0,0 km/h (0 Bft) N-NO 22 0 min 2,3 C 5,4 C 0,0 km/h (0 Bft)
12.12.2020 15:50 5,2 C 5,6 C 4,6 C 5,4 C 5,4 C 0,2 C 82 % 90 % 1004,0 hPa 0,0 l/m 0,0 km/h (0 Bft) S-SW 202 0 min 2,4 C 5,4 C 0,0 km/h (0 Bft)
12.12.2020 15:55 5,2 C 5,7 C 4,5 C 5,3 C 5,3 C 0,1 C 82 % 90 % 1004,0 hPa 0,0 l/m 0,2 km/h (0 Bft) SW 225 0 min 2,4 C 5,3 C 2,4 km/h (1 Bft)
12.12.2020 16:00 5,2 C 5,6 C 4,5 C 5,3 C 5,3 C 0,1 C 82 % 90 % 1004,0 hPa 0,0 l/m 0,6 km/h (0 Bft) S 180 0 min 2,4 C 5,3 C 0,0 km/h (0 Bft)
12.12.2020 16:05 5,2 C 5,6 C 4,5 C 5,2 C 5,2 C 0,0 C 82 % 90 % 1004,0 hPa 0,0 l/m 1,0 km/h (0 Bft) S-SW 202 0 min 2,4 C 5,2 C 0,0 km/h (0 Bft)
12.12.2020 16:10 5,2 C 5,7 C 4,5 C 5,2 C 5,2 C 0,0 C 82 % 90 % 1003,9 hPa 0,0 l/m 0,3 km/h (0 Bft) O-NO 67 0 min 2,4 C 5,2 C 0,0 km/h (0 Bft)
12.12.2020 16:15 5,1 C 5,6 C 4,5 C 5,2 C 5,2 C 0,1 C 82 % 90 % 1003,9 hPa 0,0 l/m 0,2 km/h (0 Bft) S 180 0 min 2,3 C 5,2 C 0,0 km/h (0 Bft)
12.12.2020 16:20 5,1 C 5,6 C 4,5 C 5,2 C 5,2 C 0,1 C 82 % 90 % 1003,9 hPa 0,0 l/m 0,2 km/h (0 Bft) SO 135 0 min 2,3 C 5,2 C 0,0 km/h (0 Bft)
12.12.2020 16:25 5,0 C 5,7 C 4,4 C 5,2 C 5,2 C 0,2 C 82 % 90 % 1003,9 hPa 0,0 l/m 0,3 km/h (0 Bft) S 180 0 min 2,2 C 5,2 C 1,8 km/h (1 Bft)
12.12.2020 16:30 5,1 C 5,7 C 4,3 C 5,2 C 5,2 C 0,1 C 83 % 90 % 1003,9 hPa 0,0 l/m 0,3 km/h (0 Bft) SW 225 0 min 2,5 C 5,2 C 0,0 km/h (0 Bft)
12.12.2020 16:35 5,0 C 5,7 C 4,3 C 5,1 C 5,1 C 0,1 C 83 % 90 % 1003,9 hPa 0,0 l/m 0,5 km/h (0 Bft) S 180 0 min 2,4 C 5,1 C 0,0 km/h (0 Bft)
12.12.2020 16:40 4,9 C 5,7 C 4,3 C 5,1 C 5,1 C 0,2 C 83 % 90 % 1003,9 hPa 0,0 l/m 0,5 km/h (0 Bft) S 180 0 min 2,3 C 5,1 C 1,8 km/h (1 Bft)
12.12.2020 16:45 4,9 C 5,7 C 4,2 C 5,0 C 5,0 C 0,1 C 83 % 90 % 1003,9 hPa 0,0 l/m 0,2 km/h (0 Bft) S 180 0 min 2,3 C 5,0 C 0,0 km/h (0 Bft)
12.12.2020 16:50 4,9 C 5,7 C 4,2 C 5,0 C 5,0 C 0,1 C 83 % 90 % 1004,7 hPa 0,0 l/m 0,2 km/h (0 Bft) S 180 0 min 2,3 C 5,0 C 0,0 km/h (0 Bft)
12.12.2020 16:55 4,8 C 5,7 C 4,2 C 5,0 C 5,0 C 0,2 C 83 % 90 % 1004,7 hPa 0,0 l/m 0,0 km/h (0 Bft) S 180 0 min 2,2 C 5,0 C 0,0 km/h (0 Bft)
12.12.2020 17:00 4,8 C 5,7 C 4,1 C 4,8 C 4,8 C 0,0 C 83 % 90 % 1004,7 hPa 0,0 l/m 0,0 km/h (0 Bft) S 180 0 min 2,2 C 4,8 C 0,0 km/h (0 Bft)
12.12.2020 17:05 4,8 C 5,8 C 4,0 C 4,8 C 4,7 C 0,0 C 83 % 90 % 1004,7 hPa 0,0 l/m 0,0 km/h (0 Bft) S 180 0 min 2,2 C 4,7 C 0,0 km/h (0 Bft)
12.12.2020 17:10 4,7 C 5,8 C 4,0 C 4,7 C 4,7 C 0,0 C 83 % 90 % 1004,7 hPa 0,0 l/m 0,0 km/h (0 Bft) S 180 0 min 2,1 C 4,7 C 0,0 km/h (0 Bft)
12.12.2020 17:15 4,7 C 5,8 C 3,9 C 4,7 C 4,7 C 0,0 C 83 % 91 % 1004,7 hPa 0,0 l/m 0,0 km/h (0 Bft) S 180 0 min 2,1 C 4,7 C 0,0 km/h (0 Bft)
12.12.2020 17:20 4,7 C 5,8 C 3,9 C 4,7 C 4,7 C 0,0 C 83 % 91 % 1004,7 hPa 0,0 l/m 0,0 km/h (0 Bft) S 180 0 min 2,1 C 4,7 C 0,0 km/h (0 Bft)
12.12.2020 17:25 4,7 C 5,8 C 3,9 C 4,7 C 4,6 C 0,0 C 83 % 91 % 1004,7 hPa 0,0 l/m 0,0 km/h (0 Bft) S 180 0 min 2,1 C 4,6 C 0,0 km/h (0 Bft)
12.12.2020 17:30 4,7 C 5,8 C 3,8 C 4,7 C 4,6 C 0,0 C 83 % 91 % 1004,6 hPa 0,0 l/m 0,0 km/h (0 Bft) S 180 0 min 2,1 C 4,6 C 0,0 km/h (0 Bft)
12.12.2020 17:35 4,5 C 5,8 C 3,8 C 4,5 C 4,5 C 0,0 C 84 % 91 % 1004,6 hPa 0,0 l/m 0,0 km/h (0 Bft) S 180 0 min 2,0 C 4,5 C 0,0 km/h (0 Bft)
12.12.2020 17:40 4,5 C 5,8 C 3,8 C 4,5 C 4,4 C 0,0 C 84 % 91 % 1004,6 hPa 0,0 l/m 0,0 km/h (0 Bft) S 180 0 min 2,0 C 4,4 C 0,0 km/h (0 Bft)
12.12.2020 17:45 4,5 C 5,9 C 3,8 C 4,5 C 4,4 C 0,0 C 84 % 91 % 1004,6 hPa 0,0 l/m 0,0 km/h (0 Bft) S 180 0 min 2,0 C 4,4 C 0,0 km/h (0 Bft)
12.12.2020 17:50 4,4 C 5,8 C 3,7 C 4,4 C 4,4 C 0,0 C 84 % 91 % 1004,9 hPa 0,0 l/m 0,0 km/h (0 Bft) S 180 0 min 1,9 C 4,4 C 0,0 km/h (0 Bft)
12.12.2020 17:55 4,4 C 5,9 C 3,7 C 4,4 C 4,3 C 0,0 C 84 % 91 % 1004,9 hPa 0,0 l/m 0,0 km/h (0 Bft) S 180 0 min 1,9 C 4,3 C 0,0 km/h (0 Bft)
12.12.2020 18:00 4,5 C 5,9 C 3,7 C 4,4 C 4,3 C 0,0 C 84 % 91 % 1004,9 hPa 0,0 l/m 0,0 km/h (0 Bft) S 180 0 min 2,0 C 4,3 C 0,0 km/h (0 Bft)
12.12.2020 18:05 4,4 C 5,9 C 3,6 C 4,4 C 4,3 C 0,0 C 85 % 91 % 1004,9 hPa 0,0 l/m 0,0 km/h (0 Bft) S 180 0 min 2,1 C 4,3 C 0,0 km/h (0 Bft)
12.12.2020 18:10 4,4 C 5,8 C 3,7 C 4,4 C 4,3 C 0,0 C 85 % 91 % 1004,9 hPa 0,0 l/m 0,0 km/h (0 Bft) S 180 0 min 2,1 C 4,3 C 0,0 km/h (0 Bft)
12.12.2020 18:15 4,3 C 5,9 C 3,7 C 4,3 C 4,3 C 0,0 C 85 % 91 % 1004,9 hPa 0,0 l/m 0,0 km/h (0 Bft) S 180 0 min 2,0 C 4,3 C 0,0 km/h (0 Bft)
12.12.2020 18:20 4,3 C 5,9 C 3,7 C 4,3 C 4,3 C 0,0 C 85 % 92 % 1004,9 hPa 0,0 l/m 0,0 km/h (0 Bft) S 180 0 min 2,0 C 4,3 C 0,0 km/h (0 Bft)
12.12.2020 18:25 4,3 C 5,9 C 3,6 C 4,3 C 4,3 C 0,0 C 85 % 92 % 1004,9 hPa 0,0 l/m 0,0 km/h (0 Bft) S 180 0 min 2,0 C 4,3 C 0,0 km/h (0 Bft)
12.12.2020 18:30 4,3 C 5,9 C 3,6 C 4,3 C 4,3 C 0,0 C 85 % 92 % 1004,8 hPa 0,0 l/m 0,0 km/h (0 Bft) S 180 0 min 2,0 C 4,3 C 0,0 km/h (0 Bft)
12.12.2020 18:35 4,3 C 5,9 C 3,6 C 4,3 C 4,3 C 0,0 C 86 % 92 % 1004,8 hPa 0,0 l/m 0,0 km/h (0 Bft) S 180 0 min 2,2 C 4,3 C 0,0 km/h (0 Bft)
12.12.2020 18:40 4,3 C 5,9 C 3,6 C 4,3 C 4,3 C 0,0 C 86 % 92 % 1004,8 hPa 0,0 l/m 0,0 km/h (0 Bft) S 180 0 min 2,2 C 4,3 C 0,0 km/h (0 Bft)
12.12.2020 18:45 4,2 C 5,9 C 3,6 C 4,3 C 4,3 C 0,1 C 86 % 92 % 1004,8 hPa 0,0 l/m 0,0 km/h (0 Bft) S 180 0 min 2,1 C 4,3 C 0,0 km/h (0 Bft)
12.12.2020 18:50 4,3 C 5,9 C 3,6 C 4,3 C 4,3 C 0,0 C 86 % 92 % 1005,3 hPa 0,0 l/m 0,0 km/h (0 Bft) S 180 0 min 2,2 C 4,3 C 0,0 km/h (0 Bft)
12.12.2020 18:55 4,2 C 5,9 C 3,6 C 4,3 C 4,3 C 0,1 C 86 % 92 % 1005,3 hPa 0,0 l/m 0,0 km/h (0 Bft) S 180 0 min 2,1 C 4,3 C 0,0 km/h (0 Bft)
12.12.2020 19:00 4,2 C 5,9 C 3,7 C 4,3 C 4,3 C 0,1 C 86 % 92 % 1005,3 hPa 0,0 l/m 0,0 km/h (0 Bft) S 180 0 min 2,1 C 4,3 C 0,0 km/h (0 Bft)
12.12.2020 19:05 4,2 C 5,9 C 3,7 C 4,4 C 4,4 C 0,2 C 86 % 92 % 1005,3 hPa 0,0 l/m 0,2 km/h (0 Bft) S 180 0 min 2,1 C 4,4 C 2,1 km/h (1 Bft)
12.12.2020 19:10 4,3 C 5,9 C 3,7 C 4,4 C 4,4 C 0,1 C 86 % 92 % 1005,7 hPa 0,0 l/m 0,3 km/h (0 Bft) S 180 0 min 2,2 C 4,4 C 1,6 km/h (1 Bft)
12.12.2020 19:15 4,3 C 5,9 C 3,8 C 4,5 C 4,5 C 0,2 C 86 % 92 % 1005,7 hPa 0,0 l/m 1,0 km/h (0 Bft) SW 225 0 min 2,2 C 4,5 C 0,0 km/h (0 Bft)
12.12.2020 19:20 4,3 C 5,9 C 3,8 C 4,5 C 4,5 C 0,2 C 86 % 92 % 1005,7 hPa 0,0 l/m 1,0 km/h (0 Bft) S-SO 157 0 min 2,2 C 4,5 C 1,9 km/h (1 Bft)
12.12.2020 19:25 4,3 C 5,9 C 3,8 C 4,5 C 4,5 C 0,2 C 86 % 92 % 1005,7 hPa 0,0 l/m 0,5 km/h (0 Bft) S-SO 157 0 min 2,2 C 4,5 C 0,0 km/h (0 Bft)
12.12.2020 19:30 4,3 C 5,9 C 3,8 C 4,5 C 4,5 C 0,2 C 86 % 92 % 1005,4 hPa 0,0 l/m 0,5 km/h (0 Bft) O-SO 112 0 min 2,2 C 4,5 C 0,0 km/h (0 Bft)
12.12.2020 19:35 4,3 C 5,9 C 3,7 C 4,5 C 4,5 C 0,2 C 86 % 92 % 1005,4 hPa 0,0 l/m 0,3 km/h (0 Bft) S 180 0 min 2,2 C 4,5 C 1,8 km/h (1 Bft)
12.12.2020 19:40 4,4 C 5,9 C 3,8 C 4,5 C 4,5 C 0,1 C 86 % 92 % 1005,4 hPa 0,0 l/m 0,3 km/h (0 Bft) S 180 0 min 2,3 C 4,5 C 0,0 km/h (0 Bft)
12.12.2020 19:45 4,3 C 5,9 C 3,8 C 4,5 C 4,5 C 0,2 C 86 % 92 % 1005,4 hPa 0,0 l/m 0,0 km/h (0 Bft) S 180 0 min 2,2 C 4,5 C 0,0 km/h (0 Bft)
12.12.2020 19:50 4,3 C 5,9 C 3,7 C 4,5 C 4,5 C 0,2 C 86 % 92 % 1005,9 hPa 0,0 l/m 0,0 km/h (0 Bft) S 180 0 min 2,2 C 4,5 C 0,0 km/h (0 Bft)
12.12.2020 19:55 4,3 C 5,9 C 3,7 C 4,4 C 4,4 C 0,1 C 86 % 92 % 1005,9 hPa 0,0 l/m 0,3 km/h (0 Bft) S 180 0 min 2,2 C 4,4 C 0,0 km/h (0 Bft)
12.12.2020 20:00 4,3 C 5,9 C 3,8 C 4,5 C 4,5 C 0,2 C 87 % 92 % 1005,9 hPa 0,0 l/m 0,8 km/h (0 Bft) S 180 0 min 2,3 C 4,5 C 3,9 km/h (1 Bft)
12.12.2020 20:05 4,3 C 5,9 C 3,8 C 4,5 C 4,5 C 0,2 C 87 % 92 % 1005,9 hPa 0,0 l/m 0,6 km/h (0 Bft) S 180 0 min 2,3 C 4,5 C 0,0 km/h (0 Bft)
12.12.2020 20:10 4,3 C 5,9 C 3,8 C 4,5 C 4,5 C 0,2 C 87 % 92 % 1006,4 hPa 0,0 l/m 0,3 km/h (0 Bft) O-SO 112 0 min 2,3 C 4,5 C 0,0 km/h (0 Bft)
12.12.2020 20:15 4,3 C 5,9 C 3,8 C 4,5 C 4,5 C 0,2 C 87 % 92 % 1006,4 hPa 0,0 l/m 0,5 km/h (0 Bft) S 180 0 min 2,3 C 4,5 C 0,0 km/h (0 Bft)
12.12.2020 20:20 4,3 C 5,9 C 3,9 C 4,5 C 4,5 C 0,2 C 87 % 92 % 1006,4 hPa 0,0 l/m 0,5 km/h (0 Bft) S 180 0 min 2,3 C 4,5 C 0,0 km/h (0 Bft)
12.12.2020 20:25 4,4 C 5,9 C 3,9 C 4,5 C 4,5 C 0,1 C 87 % 92 % 1006,4 hPa 0,0 l/m 0,2 km/h (0 Bft) S-SO 157 0 min 2,4 C 4,5 C 0,0 km/h (0 Bft)
12.12.2020 20:30 4,3 C 5,9 C 3,8 C 4,5 C 4,5 C 0,2 C 87 % 92 % 1006,3 hPa 0,0 l/m 0,6 km/h (0 Bft) S 180 0 min 2,3 C 4,5 C 2,4 km/h (1 Bft)
12.12.2020 20:35 4,4 C 5,9 C 3,8 C 4,6 C 4,6 C 0,2 C 87 % 92 % 1006,3 hPa 0,0 l/m 1,1 km/h (1 Bft) S-SO 157 0 min 2,4 C 4,6 C 4,2 km/h (1 Bft)
12.12.2020 20:40 4,4 C 5,9 C 3,8 C 4,6 C 4,6 C 0,2 C 87 % 92 % 1006,3 hPa 0,0 l/m 0,8 km/h (0 Bft) S 180 0 min 2,4 C 4,6 C 0,0 km/h (0 Bft)
12.12.2020 20:45 4,4 C 5,9 C 3,8 C 4,5 C 4,5 C 0,1 C 87 % 92 % 1006,3 hPa 0,0 l/m 0,0 km/h (0 Bft) SO 135 0 min 2,4 C 4,5 C 1,6 km/h (1 Bft)
12.12.2020 20:50 4,4 C 5,9 C 3,8 C 4,5 C 4,5 C 0,1 C 87 % 92 % 1006,6 hPa 0,0 l/m 0,0 km/h (0 Bft) S 180 0 min 2,4 C 4,5 C 0,0 km/h (0 Bft)
12.12.2020 20:55 4,4 C 5,9 C 3,9 C 4,5 C 4,5 C 0,1 C 87 % 92 % 1006,6 hPa 0,0 l/m 0,2 km/h (0 Bft) S 180 0 min 2,4 C 4,5 C 0,0 km/h (0 Bft)
12.12.2020 21:00 4,4 C 5,9 C 3,9 C 4,5 C 4,5 C 0,1 C 87 % 92 % 1006,6 hPa 0,0 l/m 0,2 km/h (0 Bft) S-SO 157 0 min 2,4 C 4,5 C 1,9 km/h (1 Bft)
12.12.2020 21:05 4,4 C 5,9 C 3,8 C 4,6 C 4,6 C 0,2 C 87 % 92 % 1006,6 hPa 0,0 l/m 0,5 km/h (0 Bft) S 180 0 min 2,4 C 4,6 C 2,6 km/h (1 Bft)
12.12.2020 21:10 4,4 C 5,9 C 3,9 C 4,6 C 4,6 C 0,2 C 87 % 91 % 1006,8 hPa 0,0 l/m 0,5 km/h (0 Bft) S 180 0 min 2,4 C 4,6 C 0,0 km/h (0 Bft)
12.12.2020 21:15 4,4 C 5,9 C 3,9 C 4,6 C 4,6 C 0,2 C 87 % 91 % 1006,8 hPa 0,0 l/m 0,2 km/h (0 Bft) S 180 0 min 2,4 C 4,6 C 0,0 km/h (0 Bft)
12.12.2020 21:20 4,4 C 5,8 C 3,9 C 4,6 C 4,6 C 0,2 C 87 % 91 % 1006,8 hPa 0,0 l/m 0,2 km/h (0 Bft) NO 45 0 min 2,4 C 4,6 C 0,0 km/h (0 Bft)
12.12.2020 21:25 4,4 C 5,8 C 3,9 C 4,6 C 4,6 C 0,2 C 86 % 91 % 1006,8 hPa 0,0 l/m 0,3 km/h (0 Bft) S-SO 157 0 min 2,3 C 4,6 C 0,0 km/h (0 Bft)
12.12.2020 21:30 4,4 C 5,8 C 3,9 C 4,6 C 4,6 C 0,2 C 86 % 91 % 1006,8 hPa 0,0 l/m 0,3 km/h (0 Bft) S 180 0 min 2,3 C 4,6 C 0,0 km/h (0 Bft)
12.12.2020 21:35 4,5 C 5,8 C 3,9 C 4,7 C 4,7 C 0,2 C 86 % 91 % 1006,8 hPa 0,0 l/m 1,0 km/h (0 Bft) S 180 0 min 2,4 C 4,7 C 2,1 km/h (1 Bft)
12.12.2020 21:40 4,4 C 5,8 C 3,9 C 4,7 C 4,7 C 0,3 C 86 % 91 % 1006,8 hPa 0,0 l/m 1,6 km/h (1 Bft) SO 135 0 min 2,3 C 4,7 C 0,0 km/h (0 Bft)
12.12.2020 21:45 4,5 C 5,8 C 3,9 C 4,7 C 4,7 C 0,2 C 86 % 91 % 1006,8 hPa 0,0 l/m 1,3 km/h (1 Bft) S-SO 157 0 min 2,4 C 4,7 C 3,1 km/h (1 Bft)
12.12.2020 21:50 4,5 C 5,8 C 3,9 C 4,7 C 4,7 C 0,2 C 86 % 91 % 1007,1 hPa 0,0 l/m 1,1 km/h (1 Bft) S 180 0 min 2,4 C 4,7 C 1,8 km/h (1 Bft)
12.12.2020 21:55 4,5 C 5,8 C 3,9 C 4,7 C 4,7 C 0,2 C 86 % 91 % 1007,1 hPa 0,0 l/m 1,6 km/h (1 Bft) S-SO 157 0 min 2,4 C 4,7 C 4,3 km/h (1 Bft)
12.12.2020 22:00 4,5 C 5,8 C 3,9 C 4,7 C 4,7 C 0,2 C 86 % 91 % 1007,1 hPa 0,0 l/m 2,1 km/h (1 Bft) S 180 0 min 2,4 C 4,7 C 4,5 km/h (1 Bft)
12.12.2020 22:05 4,5 C 5,8 C 3,9 C 4,7 C 4,7 C 0,2 C 86 % 91 % 1007,1 hPa 0,0 l/m 2,1 km/h (1 Bft) S 180 0 min 2,4 C 4,7 C 3,4 km/h (1 Bft)
12.12.2020 22:10 4,6 C 5,8 C 3,9 C 4,7 C 4,7 C 0,1 C 86 % 91 % 1007,0 hPa 0,0 l/m 1,8 km/h (1 Bft) S 180 0 min 2,5 C 4,7 C 2,6 km/h (1 Bft)
12.12.2020 22:15 4,5 C 5,8 C 3,9 C 4,7 C 4,7 C 0,2 C 86 % 91 % 1007,0 hPa 0,0 l/m 1,3 km/h (1 Bft) S-SO 157 0 min 2,4 C 4,7 C 0,0 km/h (0 Bft)
12.12.2020 22:20 4,5 C 5,9 C 3,9 C 4,7 C 4,7 C 0,2 C 86 % 91 % 1007,0 hPa 0,0 l/m 0,8 km/h (0 Bft) S 180 0 min 2,4 C 4,7 C 2,9 km/h (1 Bft)
12.12.2020 22:25 4,6 C 5,9 C 3,9 C 4,7 C 4,7 C 0,1 C 86 % 91 % 1007,0 hPa 0,0 l/m 1,1 km/h (1 Bft) O-SO 112 0 min 2,5 C 4,7 C 0,0 km/h (0 Bft)
12.12.2020 22:30 4,6 C 5,9 C 3,9 C 4,7 C 4,7 C 0,1 C 86 % 91 % 1007,1 hPa 0,0 l/m 2,1 km/h (1 Bft) SO 135 0 min 2,5 C 4,7 C 3,2 km/h (1 Bft)
12.12.2020 22:35 4,5 C 5,9 C 3,9 C 4,7 C 4,7 C 0,2 C 86 % 91 % 1007,1 hPa 0,0 l/m 1,6 km/h (1 Bft) S-SO 157 0 min 2,4 C 4,7 C 2,1 km/h (1 Bft)
12.12.2020 22:40 4,5 C 5,9 C 3,9 C 4,7 C 4,7 C 0,2 C 86 % 91 % 1007,1 hPa 0,0 l/m 1,3 km/h (1 Bft) SW 225 0 min 2,4 C 4,7 C 0,0 km/h (0 Bft)
12.12.2020 22:45 4,5 C 5,9 C 3,9 C 4,7 C 4,7 C 0,2 C 86 % 90 % 1007,1 hPa 0,0 l/m 1,1 km/h (1 Bft) SO 135 0 min 2,4 C 4,7 C 2,7 km/h (1 Bft)
12.12.2020 22:50 4,5 C 5,9 C 3,9 C 4,7 C 4,7 C 0,2 C 86 % 90 % 1007,2 hPa 0,0 l/m 0,6 km/h (0 Bft) O 90 0 min 2,4 C 4,7 C 0,0 km/h (0 Bft)
12.12.2020 22:55 4,5 C 5,9 C 3,9 C 4,7 C 4,7 C 0,2 C 86 % 90 % 1007,2 hPa 0,0 l/m 1,3 km/h (1 Bft) SO 135 0 min 2,4 C 4,7 C 3,9 km/h (1 Bft)
12.12.2020 23:00 4,5 C 5,9 C 3,9 C 4,7 C 4,7 C 0,2 C 86 % 91 % 1007,2 hPa 0,0 l/m 1,3 km/h (1 Bft) O-SO 112 0 min 2,4 C 4,7 C 1,9 km/h (1 Bft)
12.12.2020 23:05 4,5 C 5,9 C 3,9 C 4,7 C 4,7 C 0,2 C 86 % 91 % 1007,2 hPa 0,0 l/m 1,8 km/h (1 Bft) SO 135 0 min 2,4 C 4,7 C 3,9 km/h (1 Bft)
12.12.2020 23:10 4,5 C 5,9 C 3,9 C 4,7 C 4,7 C 0,2 C 86 % 90 % 1007,4 hPa 0,0 l/m 1,9 km/h (1 Bft) SO 135 0 min 2,4 C 4,7 C 2,4 km/h (1 Bft)
12.12.2020 23:15 4,5 C 5,9 C 3,9 C 4,7 C 4,7 C 0,2 C 86 % 90 % 1007,4 hPa 0,0 l/m 1,0 km/h (0 Bft) SO 135 0 min 2,4 C 4,7 C 0,0 km/h (0 Bft)
12.12.2020 23:20 4,4 C 5,9 C 3,9 C 4,7 C 4,7 C 0,3 C 86 % 90 % 1007,4 hPa 0,0 l/m 0,2 km/h (0 Bft) W-SW 247 0 min 2,3 C 4,7 C 0,0 km/h (0 Bft)
12.12.2020 23:25 4,5 C 5,9 C 3,9 C 4,7 C 4,7 C 0,2 C 86 % 90 % 1007,4 hPa 0,0 l/m 0,0 km/h (0 Bft) S-SO 157 0 min 2,4 C 4,7 C 0,0 km/h (0 Bft)
12.12.2020 23:30 4,4 C 5,9 C 3,9 C 4,6 C 4,6 C 0,2 C 86 % 90 % 1006,9 hPa 0,0 l/m 0,0 km/h (0 Bft) SW 225 0 min 2,3 C 4,6 C 2,1 km/h (1 Bft)
12.12.2020 23:35 4,4 C 5,9 C 3,9 C 4,6 C 4,6 C 0,2 C 86 % 90 % 1006,9 hPa 0,0 l/m 0,3 km/h (0 Bft) S-SO 157 0 min 2,3 C 4,6 C 0,0 km/h (0 Bft)
12.12.2020 23:40 4,4 C 5,9 C 3,9 C 4,7 C 4,7 C 0,3 C 86 % 90 % 1006,9 hPa 0,0 l/m 0,3 km/h (0 Bft) S-SO 157 0 min 2,3 C 4,7 C 0,0 km/h (0 Bft)
12.12.2020 23:45 4,4 C 5,9 C 3,9 C 4,7 C 4,7 C 0,3 C 86 % 90 % 1006,9 hPa 0,0 l/m 0,0 km/h (0 Bft) S-SO 157 0 min 2,3 C 4,7 C 0,0 km/h (0 Bft)
12.12.2020 23:50 4,4 C 5,9 C 3,9 C 4,7 C 4,7 C 0,3 C 86 % 90 % 1007,7 hPa 0,0 l/m 0,0 km/h (0 Bft) S-SO 157 0 min 2,3 C 4,7 C 0,0 km/h (0 Bft)
12.12.2020 23:55 4,4 C 5,9 C 3,9 C 4,6 C 4,6 C 0,2 C 86 % 90 % 1007,7 hPa 0,0 l/m 0,0 km/h (0 Bft) S-SO 157 0 min 2,3 C 4,6 C 0,0 km/h (0 Bft)
_ Min-Zeit 00:00 05:10 00:00 00:00 00:00 00:00 13:55 13:35 04:50 - 00:00 - - - 00:00 00:00 00:00
Minimum _ -1,3 C 5,2 C -1,3 C -1,4 C -1,6 C 0,0 C 80 % 89 % 1000,0 hPa - 0,0 km/h (0 Bft) - - - -3,0 C -1,6 C 0,0 km/h (0 Bft)
_ Max-Zeit 13:25 17:45 13:15 13:05 13:05 12:15 03:25 00:00 23:50 00:00 04:55 - - 00:00 12:25 13:05 12:35
Maximum _ 5,9 C 5,9 C 5,9 C 7,6 C 7,6 C 2,0 C 89 % 93 % 1007,7 hPa 0,0 l/m 2,3 km/h
SW (1 Bft)
- - 0 min 3,0 C 7,6 C 9,2 km/h
O-NO (2 Bft)
Durchschnitt _ 3,3 C 5,6 C 3,0 C 3,7 C 3,6 C 0,5 C 86 % 92 % 1002,9 hPa #0,0 l/m 0,5 km/h (0 Bft) SO - #0 min. 1,1 C 3,6 C 0,8 km/h (0 Bft)
2020 www.wetterstation-wechselburg.de